Time;durP1;ratioP1;P1;durP2;ratioP2;P2;SDS_P1;SDS_P2;PMS_P1;PMS_P2;Temp;Humidity;BMP_temperature;BMP_pressure;BME280_temperature;BME280_humidity;BME280_pressure;Samples;Min_cycle;Max_cycle;Signal;HPM_P1;HPM_P2
2021/04/13 00:00:55;;;;;;;;;;;;;;;17.80;32.37;101207.28;4417183;32;19962;-51
2021/04/13 00:03:21;;;;;;;;;;;;;;;17.84;32.30;101211.81;4416505;32;19980;-51
2021/04/13 00:05:48;;;;;;;;;;;;;;;17.80;32.29;101210.84;4417486;32;19995;-51
2021/04/13 00:08:14;;;;;;;;;;;;;;;17.83;32.27;101204.75;4416360;32;19954;-52
2021/04/13 00:10:41;;;;;;;;;;;;;;;17.81;32.27;101203.81;4416887;32;19950;-51
2021/04/13 00:13:06;;;;;;;;;;;;;;;17.82;32.24;101205.59;4415655;32;19996;-50
2021/04/13 00:15:32;;;;;;;;;;;;;;;17.83;32.17;101212.66;4416280;32;20420;-52
2021/04/13 00:17:58;;;;;;;;;;;;;;;17.81;32.21;101209.06;4416810;32;19950;-53
2021/04/13 00:20:24;;;;;;;;;;;;;;;17.82;32.20;101210.88;4417562;32;19958;-51
2021/04/13 00:22:50;;;;;;;;;;;;;;;17.78;32.31;101209.87;4417770;32;19999;-50
2021/04/13 00:25:16;;;;;;;;;;;;;;;17.78;32.28;101208.97;4415739;32;20354;-51
2021/04/13 00:27:42;;;;;;;;;;;;;;;17.81;32.20;101206.44;4415504;32;19964;-48
2021/04/13 00:30:08;;;;;;;;;;;;;;;17.75;32.22;101204.47;4401295;32;19962;-52
2021/04/13 00:32:34;;;;;;;;;;;;;;;17.77;32.25;101201.91;4401911;32;19999;-51
2021/04/13 00:35:15;;;;;;;;;;;;;;;17.77;32.29;101196.66;4416952;32;20566;-51
2021/04/13 00:37:41;;;;;;;;;;;;;;;17.74;32.33;101197.41;4415389;32;20343;-50
2021/04/13 00:40:07;;;;;;;;;;;;;;;17.75;32.16;101198.34;4416372;32;19954;-53
2021/04/13 00:42:32;;;;;;;;;;;;;;;17.77;32.24;101194.00;4416438;32;19950;-53
2021/04/13 00:44:58;;;;;;;;;;;;;;;17.67;32.32;101196.31;4416039;32;19958;-54
2021/04/13 00:47:24;;;;;;;;;;;;;;;17.68;32.39;101195.47;4416085;32;20309;-49
2021/04/13 00:49:50;;;;;;;;;;;;;;;17.74;32.26;101191.28;4417423;32;19961;-50
2021/04/13 00:52:16;;;;;;;;;;;;;;;17.76;32.17;101190.47;4416901;32;20004;-50
2021/04/13 00:54:42;;;;;;;;;;;;;;;17.70;32.32;101196.41;4416107;32;19954;-51
2021/04/13 00:57:08;;;;;;;;;;;;;;;17.73;32.20;101192.13;4416063;32;19954;-51
2021/04/13 00:59:33;;;;;;;;;;;;;;;17.69;32.23;101197.25;4406831;32;20331;-53
2021/04/13 01:01:59;;;;;;;;;;;;;;;17.71;32.20;101197.31;4401167;32;19988;-50
2021/04/13 01:04:25;;;;;;;;;;;;;;;17.64;32.40;101190.94;4410341;32;19971;-53
2021/04/13 01:06:51;;;;;;;;;;;;;;;17.66;32.33;101194.50;4416671;32;19988;-53
2021/04/13 01:09:17;;;;;;;;;;;;;;;17.67;32.28;101196.31;4415606;32;20007;-49
2021/04/13 01:11:43;;;;;;;;;;;;;;;17.66;32.29;101189.25;4416754;32;19989;-53
2021/04/13 01:14:09;;;;;;;;;;;;;;;17.62;32.33;101194.34;4416686;32;19981;-50
2021/04/13 01:16:35;;;;;;;;;;;;;;;17.58;32.41;101201.22;4416222;32;19969;-52
2021/04/13 01:19:01;;;;;;;;;;;;;;;17.58;32.42;101189.81;4416693;32;20001;-50
2021/04/13 01:21:33;;;;;;;;;;;;;;;17.58;32.33;101195.94;4417159;32;19993;-50
2021/04/13 01:24:07;;;;;;;;;;;;;;;17.61;32.25;101193.47;4417235;32;20349;-52
2021/04/13 01:26:33;;;;;;;;;;;;;;;17.56;32.40;101195.91;4416143;32;19958;-52
2021/04/13 01:28:59;;;;;;;;;;;;;;;17.61;32.31;101196.09;4411577;32;19959;-53
2021/04/13 01:34:34;;;;;;;;;;;;;;;17.65;32.21;101192.72;4374480;32;20024;-51
2021/04/13 01:37:03;;;;;;;;;;;;;;;17.69;32.14;101196.37;4398836;32;19951;-53
2021/04/13 01:39:28;;;;;;;;;;;;;;;17.70;32.09;101199.03;4409456;32;19982;-51
2021/04/13 01:44:20;;;;;;;;;;;;;;;17.66;32.09;101197.16;4418442;32;19966;-51
2021/04/13 01:46:46;;;;;;;;;;;;;;;17.64;32.18;101196.19;4419474;32;19990;-53
2021/04/13 01:49:12;;;;;;;;;;;;;;;17.66;32.15;101202.41;4419049;32;20397;-53
2021/04/13 01:51:38;;;;;;;;;;;;;;;17.64;32.14;101204.09;4419897;32;19953;-53
2021/04/13 01:54:05;;;;;;;;;;;;;;;17.68;32.08;101205.12;4419167;32;19950;-49
2021/04/13 01:56:31;;;;;;;;;;;;;;;17.69;32.02;101204.28;4419327;32;19950;-50
2021/04/13 01:58:57;;;;;;;;;;;;;;;17.65;32.11;101203.25;4417508;32;19950;-51
2021/04/13 02:01:25;;;;;;;;;;;;;;;17.55;32.27;101206.37;4403227;32;20037;-51
2021/04/13 02:03:51;;;;;;;;;;;;;;;17.58;32.22;101213.50;4404306;32;19962;-50
2021/04/13 02:06:17;;;;;;;;;;;;;;;17.66;32.06;101215.59;4417841;32;19954;-53
2021/04/13 02:08:43;;;;;;;;;;;;;;;17.72;32.00;101216.63;4417149;32;19965;-50
2021/04/13 02:11:10;;;;;;;;;;;;;;;17.60;32.17;101215.38;4417777;32;19960;-51
2021/04/13 02:13:36;;;;;;;;;;;;;;;17.63;32.06;101220.75;4419250;32;19954;-53
2021/04/13 02:16:02;;;;;;;;;;;;;;;17.61;32.13;101226.78;4418395;32;19954;-49
2021/04/13 02:18:28;;;;;;;;;;;;;;;17.58;32.18;101227.56;4418230;32;20019;-53
2021/04/13 02:20:54;;;;;;;;;;;;;;;17.60;32.13;101231.16;4418523;32;19972;-53
2021/04/13 02:23:20;;;;;;;;;;;;;;;17.60;32.07;101231.16;4417955;32;19946;-53
2021/04/13 02:25:46;;;;;;;;;;;;;;;17.55;32.12;101232.72;4418036;32;19990;-51
2021/04/13 02:28:12;;;;;;;;;;;;;;;17.54;32.22;101230.94;4417586;32;19959;-50
2021/04/13 02:30:37;;;;;;;;;;;;;;;17.57;32.17;101236.31;4411653;32;19955;-51
2021/04/13 02:33:03;;;;;;;;;;;;;;;17.57;32.12;101228.41;4403125;32;20335;-51
2021/04/13 02:35:29;;;;;;;;;;;;;;;17.59;32.11;101239.88;4409684;32;19957;-53
2021/04/13 02:37:55;;;;;;;;;;;;;;;17.51;32.22;101241.34;4418570;32;19965;-53
2021/04/13 02:40:21;;;;;;;;;;;;;;;17.61;32.05;101238.22;4418533;32;20321;-51
2021/04/13 02:42:47;;;;;;;;;;;;;;;17.55;32.16;101232.72;4418668;32;19987;-49
2021/04/13 02:45:13;;;;;;;;;;;;;;;17.45;32.31;101231.47;4417926;32;19977;-51
2021/04/13 02:47:39;;;;;;;;;;;;;;;17.58;32.12;101237.22;4417919;32;19954;-51
2021/04/13 02:50:05;;;;;;;;;;;;;;;17.56;32.13;101231.88;4417222;32;20319;-53
2021/04/13 02:52:31;;;;;;;;;;;;;;;17.51;32.19;101236.09;4418112;32;19954;-50
2021/04/13 02:54:57;;;;;;;;;;;;;;;17.49;32.20;101235.12;4418736;32;19950;-52
2021/04/13 02:57:23;;;;;;;;;;;;;;;17.55;32.11;101244.16;4417265;32;21206;-50
2021/04/13 02:59:48;;;;;;;;;;;;;;;17.42;32.28;101237.53;4417444;32;19943;-53
2021/04/13 03:02:14;;;;;;;;;;;;;;;17.52;32.13;101243.16;4416938;32;19989;-52
2021/04/13 03:04:40;;;;;;;;;;;;;;;17.51;32.15;101246.63;4418514;32;19962;-51
2021/04/13 03:07:06;;;;;;;;;;;;;;;17.50;32.13;101250.09;4418268;32;19996;-50
2021/04/13 03:09:32;;;;;;;;;;;;;;;17.52;32.07;101251.94;4418084;32;19950;-50
2021/04/13 03:11:58;;;;;;;;;;;;;;;17.48;32.20;101252.66;4417596;32;19958;-53
2021/04/13 03:14:24;;;;;;;;;;;;;;;17.47;32.19;101255.22;4417936;32;19999;-53
2021/04/13 03:16:50;;;;;;;;;;;;;;;17.53;32.10;101255.47;4416610;32;19976;-53
2021/04/13 03:19:16;;;;;;;;;;;;;;;17.51;32.09;101267.69;4417730;32;19990;-53
2021/04/13 03:21:41;;;;;;;;;;;;;;;17.55;32.08;101264.31;4418618;32;19953;-53
2021/04/13 03:24:07;;;;;;;;;;;;;;;17.58;32.01;101268.81;4418026;32;19958;-53
2021/04/13 03:26:33;;;;;;;;;;;;;;;17.49;32.12;101264.09;4418442;32;20289;-53
2021/04/13 03:28:59;;;;;;;;;;;;;;;17.56;31.96;101264.41;4417722;32;19954;-53
2021/04/13 03:31:31;;;;;;;;;;;;;;;17.59;31.98;101268.84;4416736;32;19958;-54
2021/04/13 03:33:57;;;;;;;;;;;;;;;17.54;32.02;101270.44;4418485;32;19965;-53
2021/04/13 03:36:23;;;;;;;;;;;;;;;17.52;32.04;101274.75;4417963;32;20403;-53
2021/04/13 03:38:49;;;;;;;;;;;;;;;17.55;32.02;101280.13;4417622;32;19985;-51
2021/04/13 03:41:15;;;;;;;;;;;;;;;17.56;31.97;101276.66;4417618;32;20302;-51
2021/04/13 03:43:41;;;;;;;;;;;;;;;17.52;32.00;101274.75;4418426;32;19962;-54
2021/04/13 03:46:07;;;;;;;;;;;;;;;17.54;32.00;101275.69;4416354;32;19987;-51
2021/04/13 03:48:32;;;;;;;;;;;;;;;17.46;32.10;101274.50;4416678;32;19954;-50
2021/04/13 03:50:58;;;;;;;;;;;;;;;17.55;31.91;101278.41;4417667;32;19977;-53
2021/04/13 03:53:24;;;;;;;;;;;;;;;17.51;32.01;101278.22;4416669;32;19953;-53
2021/04/13 03:55:50;;;;;;;;;;;;;;;17.55;31.98;101277.50;4417686;32;19953;-52
2021/04/13 03:58:16;;;;;;;;;;;;;;;17.51;32.03;101278.22;4401469;32;19978;-52
2021/04/13 04:00:42;;;;;;;;;;;;;;;17.47;32.06;101281.56;4411190;32;19954;-51
2021/04/13 04:03:08;;;;;;;;;;;;;;;17.48;32.01;101281.63;4415226;32;20553;-51
2021/04/13 04:05:34;;;;;;;;;;;;;;;17.51;31.96;101280.84;4417627;32;19954;-53
2021/04/13 04:08:03;;;;;;;;;;;;;;;17.49;32.00;101282.53;4417317;32;19949;-50
2021/04/13 04:10:29;;;;;;;;;;;;;;;17.53;31.89;101281.81;4417942;32;19949;-53
2021/04/13 04:12:55;;;;;;;;;;;;;;;17.50;31.95;101285.22;4417485;32;20575;-53
2021/04/13 04:15:21;;;;;;;;;;;;;;;17.51;31.92;101283.50;4416308;32;19986;-51
2021/04/13 04:17:47;;;;;;;;;;;;;;;17.48;32.02;101293.91;4416281;32;19992;-53
2021/04/13 04:20:12;;;;;;;;;;;;;;;17.46;31.96;101288.56;4416702;32;20342;-52
2021/04/13 04:22:38;;;;;;;;;;;;;;;17.45;32.01;101292.06;4416949;32;19954;-53
2021/04/13 04:25:04;;;;;;;;;;;;;;;17.43;32.05;101296.38;4416011;32;20030;-51
2021/04/13 04:27:31;;;;;;;;;;;;;;;17.45;31.97;101288.50;4415554;32;19958;-53
2021/04/13 04:29:56;;;;;;;;;;;;;;;17.41;32.02;101301.56;4416352;32;20393;-54
2021/04/13 04:32:23;;;;;;;;;;;;;;;17.43;31.97;101296.38;4416256;32;19958;-50
2021/04/13 04:34:48;;;;;;;;;;;;;;;17.52;31.84;101306.34;4416757;32;19962;-52
2021/04/13 04:37:14;;;;;;;;;;;;;;;17.41;31.95;101309.47;4416360;32;19934;-53
2021/04/13 04:39:40;;;;;;;;;;;;;;;17.45;31.97;101309.56;4416756;32;19934;-52
2021/04/13 04:42:07;;;;;;;;;;;;;;;17.46;31.91;101312.28;4416227;32;20022;-51
2021/04/13 04:44:33;;;;;;;;;;;;;;;17.44;31.91;101313.97;4417382;32;19958;-53
2021/04/13 04:46:59;;;;;;;;;;;;;;;17.40;31.95;101312.94;4415679;32;19983;-53
2021/04/13 04:49:25;;;;;;;;;;;;;;;17.38;32.02;101311.06;4416183;32;20256;-51
2021/04/13 04:51:51;;;;;;;;;;;;;;;17.44;31.93;101315.69;4416531;32;19976;-51
2021/04/13 04:54:17;;;;;;;;;;;;;;;17.46;31.83;101319.25;4414566;32;19980;-52
2021/04/13 04:56:43;;;;;;;;;;;;;;;17.45;31.87;101325.37;4412087;32;19992;-52
2021/04/13 04:59:09;;;;;;;;;;;;;;;17.44;31.88;101323.56;4416312;32;19955;-53
2021/04/13 05:01:35;;;;;;;;;;;;;;;17.42;31.90;101332.31;4416598;32;20145;-53
2021/04/13 05:04:01;;;;;;;;;;;;;;;17.43;31.89;101325.31;4416356;32;19958;-51
2021/04/13 05:06:27;;;;;;;;;;;;;;;17.40;31.92;101328.72;4417180;32;20350;-53
2021/04/13 05:08:54;;;;;;;;;;;;;;;17.37;31.94;101328.63;4416546;32;20373;-53
2021/04/13 05:11:20;;;;;;;;;;;;;;;17.38;31.96;101335.69;4416903;32;19957;-53
2021/04/13 05:13:46;;;;;;;;;;;;;;;17.35;31.99;101340.81;4418471;32;20279;-52
2021/04/13 05:16:12;;;;;;;;;;;;;;;17.43;31.86;101343.75;4404193;32;19963;-52
2021/04/13 05:18:38;;;;;;;;;;;;;;;17.41;31.85;101341.06;4406346;32;19942;-53
2021/04/13 05:21:03;;;;;;;;;;;;;;;17.44;31.78;101344.63;4420002;32;19969;-51
2021/04/13 05:23:29;;;;;;;;;;;;;;;17.38;31.87;101346.19;4420229;32;20278;-52
2021/04/13 05:25:55;;;;;;;;;;;;;;;17.39;31.89;101348.00;4419783;32;20020;-53
2021/04/13 05:28:21;;;;;;;;;;;;;;;17.38;31.85;101351.47;4419815;32;19984;-53
2021/04/13 05:30:49;;;;;;;;;;;;;;;17.39;31.87;101353.25;4420292;32;19971;-50
2021/04/13 05:33:14;;;;;;;;;;;;;;;17.45;31.82;101351.69;4418585;32;19985;-50
2021/04/13 05:35:40;;;;;;;;;;;;;;;17.47;31.72;101355.28;4417763;32;19994;-52
2021/04/13 05:38:06;;;;;;;;;;;;;;;17.49;31.73;101358.91;4412350;32;20033;-51
2021/04/13 05:40:32;;;;;;;;;;;;;;;17.50;31.69;101364.22;4403276;32;19938;-51
2021/04/13 05:42:58;;;;;;;;;;;;;;;17.46;31.75;101361.41;4403222;32;20005;-53
2021/04/13 05:45:24;;;;;;;;;;;;;;;17.46;31.76;101364.03;4403089;32;19962;-49
2021/04/13 05:47:50;;;;;;;;;;;;;;;17.50;31.69;101360.69;4403556;32;19984;-50
2021/04/13 05:50:16;;;;;;;;;;;;;;;17.49;31.74;101364.19;4401418;32;20270;-50
2021/04/13 05:52:42;;;;;;;;;;;;;;;17.51;31.74;101367.75;4399868;32;19951;-53
2021/04/13 05:55:08;;;;;;;;;;;;;;;17.52;31.71;101370.44;4401653;32;19980;-50
2021/04/13 05:57:34;;;;;;;;;;;;;;;17.49;31.73;101369.44;4400645;32;19954;-51
2021/04/13 06:00:01;;;;;;;;;;;;;;;17.50;31.74;101376.50;4388364;32;19985;-49
2021/04/13 06:02:27;;;;;;;;;;;;;;;17.55;31.68;101374.94;4398202;32;19964;-51
2021/04/13 06:04:53;;;;;;;;;;;;;;;17.53;31.70;101372.25;4401861;32;19981;-52
2021/04/13 06:07:19;;;;;;;;;;;;;;;17.58;31.61;101372.41;4400713;32;19974;-52
2021/04/13 06:09:44;;;;;;;;;;;;;;;17.53;31.71;101372.25;4401180;32;20385;-51
2021/04/13 06:12:10;;;;;;;;;;;;;;;17.56;31.68;101379.37;4413567;32;20031;-52
2021/04/13 06:14:36;;;;;;;;;;;;;;;17.57;31.62;101381.16;4416504;32;20000;-51
2021/04/13 06:17:02;;;;;;;;;;;;;;;17.56;31.65;101376.72;4417294;32;19995;-50
2021/04/13 06:19:30;;;;;;;;;;;;;;;17.61;31.60;101390.09;4417787;32;20001;-49
2021/04/13 06:21:56;;;;;;;;;;;;;;;17.56;31.68;101387.28;4417820;32;20368;-50
2021/04/13 06:24:22;;;;;;;;;;;;;;;17.55;31.72;101389.03;4414228;32;19985;-48
2021/04/13 06:26:47;;;;;;;;;;;;;;;17.56;31.72;101389.91;4417299;32;19954;-51
2021/04/13 06:29:13;;;;;;;;;;;;;;;17.55;31.74;101393.37;4417319;32;20016;-46
2021/04/13 06:31:39;;;;;;;;;;;;;;;17.51;31.81;101394.97;4405220;32;19958;-50
2021/04/13 06:34:05;;;;;;;;;;;;;;;17.52;31.84;101406.44;4400341;32;19962;-53
2021/04/13 06:36:31;;;;;;;;;;;;;;;17.53;31.78;101402.97;4385444;32;20340;-52
2021/04/13 06:38:57;;;;;;;;;;;;;;;17.50;31.87;101413.37;4389731;32;19951;-50
2021/04/13 06:41:23;;;;;;;;;;;;;;;17.49;31.88;101408.94;4402337;32;20052;-51
2021/04/13 06:43:49;;;;;;;;;;;;;;;17.40;32.05;101407.72;4403141;32;20366;-53
2021/04/13 06:46:14;;;;;;;;;;;;;;;17.48;31.93;101415.06;4416843;32;19954;-51
2021/04/13 06:48:40;;;;;;;;;;;;;;;17.54;31.87;101410.03;4416715;32;19950;-53
2021/04/13 06:51:06;;;;;;;;;;;;;;;17.42;32.10;101416.56;4414383;32;19942;-49
2021/04/13 06:53:32;;;;;;;;;;;;;;;17.45;32.04;101415.81;4414146;32;19997;-49
2021/04/13 06:55:58;;;;;;;;;;;;;;;17.50;31.98;101414.25;4416951;32;19981;-52
2021/04/13 06:58:24;;;;;;;;;;;;;;;17.56;31.86;101418.88;4415807;32;19976;-48
2021/04/13 07:00:50;;;;;;;;;;;;;;;17.61;31.79;101416.44;4416465;32;19955;-51
2021/04/13 07:03:16;;;;;;;;;;;;;;;17.59;31.83;101413.72;4416402;32;20004;-50
2021/04/13 07:05:42;;;;;;;;;;;;;;;17.58;31.84;101419.84;4417543;32;20002;-53
2021/04/13 07:08:08;;;;;;;;;;;;;;;17.53;31.97;101418.75;4416555;32;19980;-51
2021/04/13 07:10:34;;;;;;;;;;;;;;;17.59;31.87;101419.00;4416778;32;19958;-52
2021/04/13 07:13:06;;;;;;;;;;;;;;;17.61;31.84;101422.63;4416859;32;20328;-49
2021/04/13 07:15:32;;;;;;;;;;;;;;;17.59;31.87;101424.25;4416531;32;20090;-52
2021/04/13 07:17:59;;;;;;;;;;;;;;;17.61;31.85;101417.34;4416612;32;19951;-49
2021/04/13 07:20:25;;;;;;;;;;;;;;;17.65;31.79;101418.34;4416270;32;19994;-51
2021/04/13 07:22:51;;;;;;;;;;;;;;;17.67;31.74;101412.31;4417118;32;19982;-52
2021/04/13 07:25:17;;;;;;;;;;;;;;;17.64;32.07;101422.72;4416497;32;20339;-52
2021/04/13 07:27:44;;;;;;;;;;;;;;;17.59;32.04;101426.87;4416739;32;19973;-49
2021/04/13 07:30:10;;;;;;;;;;;;;;;17.58;31.96;101427.72;4416044;32;19950;-52
2021/04/13 07:32:36;;;;;;;;;;;;;;;17.65;31.87;101428.88;4416685;32;20058;-52
2021/04/13 07:35:02;;;;;;;;;;;;;;;17.69;31.75;101418.53;4414970;32;20363;-50
2021/04/13 07:37:28;;;;;;;;;;;;;;;17.74;31.68;101423.09;4415109;32;20004;-52
2021/04/13 07:39:54;;;;;;;;;;;;;;;17.75;31.67;101415.25;4416990;32;20009;-52
2021/04/13 07:42:20;;;;;;;;;;;;;;;17.73;31.73;101421.31;4416285;32;19987;-48
2021/04/13 07:44:46;;;;;;;;;;;;;;;17.70;31.77;101422.06;4415197;32;19950;-49
2021/04/13 07:47:12;;;;;;;;;;;;;;;17.74;31.70;101412.56;4415498;32;19981;-51
2021/04/13 07:49:39;;;;;;;;;;;;;;;17.76;31.70;101418.78;4416108;32;19987;-50
2021/04/13 07:52:05;;;;;;;;;;;;;;;17.73;31.74;101423.94;4415066;32;19957;-51
2021/04/13 07:54:31;;;;;;;;;;;;;;;17.69;31.74;101428.19;4416471;32;19954;-52
2021/04/13 07:56:57;;;;;;;;;;;;;;;17.73;31.70;101423.94;4402656;32;20000;-50
2021/04/13 07:59:23;;;;;;;;;;;;;;;17.73;31.69;101416.03;4401162;32;20069;-49
2021/04/13 08:01:49;;;;;;;;;;;;;;;17.77;31.58;101423.22;4413042;32;19999;-49
2021/04/13 08:04:15;;;;;;;;;;;;;;;17.72;31.62;101425.66;4415639;32;19966;-51
2021/04/13 08:06:41;;;;;;;;;;;;;;;17.63;31.87;101420.94;4415349;32;19973;-52
2021/04/13 08:09:07;;;;;;;;;;;;;;;17.62;31.90;101419.13;4415589;32;20357;-49
2021/04/13 08:11:34;;;;;;;;;;;;;;;17.74;31.75;101429.25;4416486;32;19955;-49
2021/04/13 08:14:00;;;;;;;;;;;;;;;17.79;31.66;101424.19;4415321;32;19946;-49
2021/04/13 08:16:26;;;;;;;;;;;;;;;17.76;31.68;101429.34;4415448;32;19984;-49
2021/04/13 08:18:52;;;;;;;;;;;;;;;17.78;31.67;101432.91;4415252;32;19985;-49
2021/04/13 08:21:18;;;;;;;;;;;;;;;17.79;31.68;101421.53;4407150;32;19954;-47
2021/04/13 08:23:44;;;;;;;;;;;;;;;17.79;31.68;101424.19;4401205;32;19954;-51
2021/04/13 08:26:10;;;;;;;;;;;;;;;17.84;31.60;101422.59;4406485;32;20001;-50
2021/04/13 08:28:36;;;;;;;;;;;;;;;17.82;31.65;101424.28;4415437;32;20339;-52
2021/04/13 08:33:47;;;;;;;;;;;;;;;17.81;31.66;101425.12;4415817;32;20041;-52
2021/04/13 08:36:15;;;;;;;;;;;;;;;17.80;31.68;101425.97;4410775;32;19951;-49
2021/04/13 08:38:43;;;;;;;;;;;;;;;17.82;31.64;101433.09;4401051;32;19950;-51
2021/04/13 08:41:10;;;;;;;;;;;;;;;17.77;31.77;101428.50;4408159;32;19966;-52
2021/04/13 08:43:39;;;;;;;;;;;;;;;17.69;31.87;101426.44;4414037;32;19966;-53
2021/04/13 08:46:05;;;;;;;;;;;;;;;17.74;31.88;101420.47;4414438;32;19973;-50
2021/04/13 08:48:32;;;;;;;;;;;;;;;17.76;31.91;101417.03;4413524;32;20010;-50
2021/04/13 08:50:57;;;;;;;;;;;;;;;17.74;31.93;101428.38;4414640;32;20406;-52
2021/04/13 08:53:23;;;;;;;;;;;;;;;17.79;31.87;101421.53;4411872;32;20025;-50
2021/04/13 08:55:49;;;;;;;;;;;;;;;17.76;32.10;101430.22;4415751;32;19958;-52
2021/04/13 08:58:19;;;;;;;;;;;;;;;17.77;32.14;101428.50;4415961;32;19965;-52
2021/04/13 09:00:46;;;;;;;;;;;;;;;17.81;32.05;101419.84;4415103;32;20386;-51
2021/04/13 09:03:11;;;;;;;;;;;;;;;17.64;32.36;101433.25;4415910;32;19981;-52
2021/04/13 09:05:39;;;;;;;;;;;;;;;17.66;32.47;101436.84;4416234;32;19962;-52
2021/04/13 09:08:04;;;;;;;;;;;;;;;17.75;32.35;101430.16;4416248;32;19973;-53
2021/04/13 09:10:30;;;;;;;;;;;;;;;17.79;32.22;101432.06;4417009;32;19954;-53
2021/04/13 09:12:56;;;;;;;;;;;;;;;17.64;32.50;101435.91;4416509;32;19985;-48
2021/04/13 09:15:23;;;;;;;;;;;;;;;17.78;32.35;101436.47;4415430;32;20951;-48
2021/04/13 09:17:49;;;;;;;;;;;;;;;17.86;32.25;101436.78;4415806;32;20734;-49
2021/04/13 09:20:15;;;;;;;;;;;;;;;17.74;32.48;101434.53;4415813;32;19950;-53
2021/04/13 09:22:41;;;;;;;;;;;;;;;17.82;32.46;101429.56;4415711;32;20375;-50
2021/04/13 09:25:07;;;;;;;;;;;;;;;17.92;32.29;101437.00;4413827;32;19968;-50
2021/04/13 09:27:32;;;;;;;;;;;;;;;17.96;32.24;101435.38;4415098;32;19969;-52
2021/04/13 09:29:59;;;;;;;;;;;;;;;17.91;32.37;101432.56;4416382;32;20346;-50
2021/04/13 09:32:26;;;;;;;;;;;;;;;17.89;32.33;101434.25;4415259;32;19968;-50
2021/04/13 09:34:51;;;;;;;;;;;;;;;17.91;32.44;101429.06;4416122;32;19961;-51
2021/04/13 09:37:17;;;;;;;;;;;;;;;17.96;32.41;101431.03;4415171;32;19954;-53
2021/04/13 09:39:43;;;;;;;;;;;;;;;17.94;32.42;101427.41;4415794;32;19958;-49
2021/04/13 09:42:09;;;;;;;;;;;;;;;18.04;32.24;101427.81;4412266;32;20263;-51
2021/04/13 09:44:35;;;;;;;;;;;;;;;18.06;32.19;101423.50;4414560;32;20206;-51
2021/04/13 09:47:01;;;;;;;;;;;;;;;17.98;32.37;101418.81;4414862;32;19954;-49
2021/04/13 09:49:27;;;;;;;;;;;;;;;18.09;32.24;101421.00;4414405;32;20057;-52
2021/04/13 09:51:53;;;;;;;;;;;;;;;18.12;32.13;101426.37;4411997;32;20827;-52
2021/04/13 09:54:19;;;;;;;;;;;;;;;18.08;32.25;101414.81;4415071;32;19971;-51
2021/04/13 09:56:45;;;;;;;;;;;;;;;18.15;32.21;101418.56;4415154;32;19946;-49
2021/04/13 09:59:11;;;;;;;;;;;;;;;18.22;32.05;101417.06;4413839;32;19977;-50
2021/04/13 10:01:36;;;;;;;;;;;;;;;18.23;32.14;101417.16;4402843;32;19954;-52
2021/04/13 10:04:02;;;;;;;;;;;;;;;18.27;32.13;101412.84;4413814;32;20012;-51
2021/04/13 10:06:28;;;;;;;;;;;;;;;18.22;32.32;101415.34;4406796;32;19972;-50
2021/04/13 10:08:55;;;;;;;;;;;;;;;18.18;32.36;101412.53;4416540;32;19991;-50
2021/04/13 10:11:21;;;;;;;;;;;;;;;18.22;32.20;101406.53;4416863;32;19954;-48
2021/04/13 10:13:47;;;;;;;;;;;;;;;18.29;32.16;101412.94;4418286;32;20318;-51
2021/04/13 10:16:13;;;;;;;;;;;;;;;18.23;32.12;101403.97;4416247;32;19986;-51
2021/04/13 10:18:39;;;;;;;;;;;;;;;18.19;32.29;101407.28;4416627;32;20327;-50
2021/04/13 10:21:05;;;;;;;;;;;;;;;18.24;32.13;101403.13;4412040;32;20002;-49
2021/04/13 10:23:30;;;;;;;;;;;;;;;18.31;31.99;101401.59;4419693;32;19946;-49
2021/04/13 10:25:56;;;;;;;;;;;;;;;18.40;31.98;101401.03;4418204;32;19950;-49
2021/04/13 10:28:22;;;;;;;;;;;;;;;18.46;31.85;101390.72;4418755;32;19972;-49
2021/04/13 10:30:48;;;;;;;;;;;;;;;18.51;31.81;101388.22;4418925;32;19938;-51
2021/04/13 10:33:14;;;;;;;;;;;;;;;18.54;31.82;101389.25;4418584;32;19972;-50
2021/04/13 10:35:40;;;;;;;;;;;;;;;18.58;31.76;101394.62;4417783;32;19973;-52
2021/04/13 10:38:06;;;;;;;;;;;;;;;18.60;31.67;101388.56;4417355;32;19992;-47
2021/04/13 10:40:32;;;;;;;;;;;;;;;18.60;31.67;101388.56;4418934;32;20334;-49
2021/04/13 10:42:58;;;;;;;;;;;;;;;18.62;31.63;101392.16;4418306;32;19935;-53
2021/04/13 10:45:24;;;;;;;;;;;;;;;18.63;31.66;101393.06;4416941;32;19950;-51
2021/04/13 10:47:50;;;;;;;;;;;;;;;18.63;31.67;101387.78;4417202;32;20010;-49
2021/04/13 10:50:18;;;;;;;;;;;;;;;18.63;31.63;101387.78;4417154;32;20004;-52
2021/04/13 10:52:44;;;;;;;;;;;;;;;18.67;31.54;101373.84;4412659;32;19990;-51
2021/04/13 10:55:10;;;;;;;;;;;;;;;18.68;31.53;101380.94;4410319;32;19977;-51
2021/04/13 10:57:35;;;;;;;;;;;;;;;18.69;31.51;101377.44;4417928;32;19946;-50
2021/04/13 11:00:01;;;;;;;;;;;;;;;18.71;31.47;101370.50;4419093;32;20018;-51
2021/04/13 11:02:27;;;;;;;;;;;;;;;18.48;31.85;101373.22;4418276;32;20348;-49
2021/04/13 11:04:53;;;;;;;;;;;;;;;18.53;31.88;101365.47;4418763;32;19958;-51
2021/04/13 11:07:19;;;;;;;;;;;;;;;18.67;31.52;101368.56;4417513;32;19942;-50
2021/04/13 11:09:45;;;;;;;;;;;;;;;18.73;31.49;101376.72;4418489;32;20306;-51
2021/04/13 11:12:11;;;;;;;;;;;;;;;18.76;31.42;101374.19;4417407;32;19958;-52
2021/04/13 11:14:37;;;;;;;;;;;;;;;18.80;31.32;101378.72;4419474;32;19965;-52
2021/04/13 11:17:03;;;;;;;;;;;;;;;18.82;31.31;101374.38;4417983;32;19961;-50
2021/04/13 11:19:28;;;;;;;;;;;;;;;18.83;31.28;101385.84;4411373;32;20380;-51
2021/04/13 11:21:54;;;;;;;;;;;;;;;18.85;31.26;101375.34;4412873;32;19973;-51
2021/04/13 11:24:20;;;;;;;;;;;;;;;18.89;31.23;101382.53;4414674;32;20321;-51
2021/04/13 11:26:46;;;;;;;;;;;;;;;18.90;31.22;101379.97;4409837;32;19976;-50
2021/04/13 11:29:12;;;;;;;;;;;;;;;18.92;31.17;101380.00;4412152;32;19954;-53
2021/04/13 11:31:38;;;;;;;;;;;;;;;18.94;31.15;101370.38;4410172;32;19942;-49
2021/04/13 11:34:04;;;;;;;;;;;;;;;18.94;31.09;101362.47;4412770;32;19994;-50
2021/04/13 11:36:30;;;;;;;;;;;;;;;18.93;31.10;101358.94;4410244;32;20353;-51
2021/04/13 11:38:56;;;;;;;;;;;;;;;18.92;31.13;101353.59;4413777;32;19956;-52
2021/04/13 11:41:22;;;;;;;;;;;;;;;18.89;31.05;101353.50;4409582;32;19974;-53
2021/04/13 11:43:47;;;;;;;;;;;;;;;18.92;31.06;101353.59;4411358;32;19981;-50
2021/04/13 11:46:13;;;;;;;;;;;;;;;18.85;31.01;101355.13;4410156;32;19968;-49
2021/04/13 11:48:39;;;;;;;;;;;;;;;18.86;30.92;101342.84;4415597;32;19973;-48
2021/04/13 11:51:05;;;;;;;;;;;;;;;18.58;31.50;101363.88;4409634;32;20036;-49
2021/04/13 11:53:31;;;;;;;;;;;;;;;18.59;31.65;101364.78;4406679;32;20331;-48
2021/04/13 11:55:57;;;;;;;;;;;;;;;18.53;31.75;101363.72;4417774;32;19989;-48
2021/04/13 11:58:24;;;;;;;;;;;;;;;18.64;31.76;101363.19;4410521;32;20033;-51
2021/04/13 12:00:50;;;;;;;;;;;;;;;18.68;31.78;101365.09;4417336;32;19950;-49
2021/04/13 12:03:16;;;;;;;;;;;;;;;18.76;31.68;101368.91;4402455;32;20017;-51
2021/04/13 12:05:42;;;;;;;;;;;;;;;18.76;31.79;101363.63;4407017;32;19958;-53
2021/04/13 12:08:08;;;;;;;;;;;;;;;18.79;31.41;101362.84;4397582;32;19978;-52
2021/04/13 12:10:34;;;;;;;;;;;;;;;18.83;31.24;101364.75;4417146;32;19951;-52
2021/04/13 12:13:00;;;;;;;;;;;;;;;18.73;31.57;101363.53;4415777;32;20022;-48
2021/04/13 12:15:26;;;;;;;;;;;;;;;18.89;31.33;101362.31;4412797;32;20292;-49
2021/04/13 12:17:52;;;;;;;;;;;;;;;18.90;31.19;101360.56;4412172;32;19950;-51
2021/04/13 12:20:18;;;;;;;;;;;;;;;18.77;31.24;101362.78;4415557;32;19950;-52
2021/04/13 12:22:44;;;;;;;;;;;;;;;18.75;31.27;101364.47;4415229;32;19977;-54
2021/04/13 12:25:10;;;;;;;;;;;;;;;18.79;31.22;101358.44;4415879;32;20010;-52
2021/04/13 12:27:36;;;;;;;;;;;;;;;18.88;31.20;101351.72;4415488;32;19989;-50
2021/04/13 12:30:02;;;;;;;;;;;;;;;18.98;31.25;101353.81;4414944;32;20306;-48
2021/04/13 12:32:29;;;;;;;;;;;;;;;18.86;31.36;101353.41;4415747;32;20497;-47
2021/04/13 12:34:57;;;;;;;;;;;;;;;18.92;31.24;101354.50;4415916;32;19973;-48
2021/04/13 12:37:23;;;;;;;;;;;;;;;18.95;31.08;101349.31;4399977;32;20030;-49